KL   EN   DA


ASIAQ
Weather Now GREENLAND SURVEY
Sorting:
Along the coast
Alphabetical
Location Updated [WGT/WGST] Temperature [°C] Wind [m/s] Air pressure [hPa] Relative humidity [%] Precipitation [mm]
PresentWind chillSpeedMax
Qaanaaq17.01 12:00-20,9n/a1,1 ⇘1,51010830,0
Kitsissut17.01 12:00-13,1-19,93,6 ⇒5,1101189n/a
Kitsissorsuit17.01 12:00-16,7n/an/an/a100485n/a
Upernavik17.01 12:00-10,1-17,24,6 ⇐5,699163n/a
Qaarsut17.01 12:00-8,4-17,99,3 ⇖11,9996540,1
Nuussuaq17.01 12:00-6,1-9,72,1 ⇐3,6100364n/a
Qeqertarsuaq17.01 10:00-5,7-13,67,9 ⇓11,01005580,0
Ilulissat17.01 12:00-5,6-14,08,8 ⇐12,31004n/an/a
Qasigiannguit17.01 12:00-4,3-9,74,1 ⇑7,31004570,0
Aasiaat17.01 12:00-6,0-12,24,7 ⇗6,21005760,2
Attu17.01 12:00n/an/a9,3 ⇑11,31006n/an/a
Kangerlussuaq17.01 12:00-4,5-8,62,7 ⇐4,3100256n/a
Sisimiut17.01 12:00-5,0-13,08,6 ⇑11,6100979n/a
Maniitsoq17.01 12:00-5,7-14,49,4 ⇗13,0100986n/a
Sioralik17.01 12:00-4,2-12,910,8 ⇗13,4101277n/a
Kapisillit17.01 12:00-3,5-12,512,6 ⇗14,81004720,0
Nuuk Airport17.01 12:00-4,8-12,88,5 ⇗11,21003860,1
Nuuk Skibakke/Sisorarfiit17.01 12:00-7,0-17,011,8 ⇗14,997087n/a
Nuuk City17.01 12:00-4,1-13,212,1 ⇗17,31003630,1
Ukiivik17.01 12:00-2,0-6,43,6 ⇘4,1101484n/a
Paamiut17.01 12:00-2,4-8,25,5 ⇖6,8101283n/a
Narsarsuaq17.01 12:00-3,3-6,32,0 ⇗2,2101574-0,1
Narsaq17.01 12:00-3,2n/a0,9 ⇐1,5101588n/a
Nunarsuit17.01 12:00-2,0-8,67,2 ⇐8,2101390n/a
Qaqortoq17.01 12:00-2,7-6,22,5 ⇐4,11016930,0
Nanortalik17.01 12:00-2,7-6,42,6 ⇓3,51017920,0
Angisoq17.01 12:00-1,1-4,42,6 ⇙3,1101694n/a
Prins Christian Sund17.01 12:00-0,3n/a0,8 ⇖1,9100765n/a
Ikermiuarsuk17.01 12:00-1,8-6,23,6 ⇓4,1100857n/a
Ikermit17.01 12:00-5,7-17,219,0 ⇘23,7100057n/a
Kulusuk17.01 12:00-4,8-9,43,1 ⇗4,11005860,0
Tasiilaq17.01 12:00-5,2n/a0,0 ⇓0,01003780,0
Aputiteeq17.01 12:00-4,0n/an/an/a100692n/a
Ittoqqortoormiit17.01 12:00-6,9-15,89,1 ⇙14,11004660,2
Nerlerit Inaat17.01 12:00-7,8-16,98,9 ⇓11,6101367n/a
Daneborg17.01 12:00-20,1n/an/an/a101783n/a
Danmarkshavn17.01 12:00-13,8-25,610,6 ⇘12,9101755n/a
Henrik Krøyer Holme17.01 12:00-11,8-24,013,4 ⇓16,5101783n/a
Station Nord17.01 12:00-17,1n/an/an/a101785n/a
Kap Morris Jesup17.01 12:00-19,8-34,913,4 ⇐16,5102179n/a

Advanced version
Data source - Operated by - Disclaimer